Time;durP1;ratioP1;P1;durP2;ratioP2;P2;SDS_P1;SDS_P2;PMS_P1;PMS_P2;Temp;Humidity;BMP_temperature;BMP_pressure;BME280_temperature;BME280_humidity;BME280_pressure;Samples;Min_cycle;Max_cycle;Signal;HPM_P1;HPM_P2
2023/09/28 00:00:46;;;;;;;5.27;2.57;;;;;;;20.63;100.00;101217.53;5261022;28;20457;-79
2023/09/28 00:03:18;;;;;;;4.72;2.65;;;;;;;20.62;100.00;101226.53;5258891;28;20060;-76
2023/09/28 00:05:50;;;;;;;4.30;2.77;;;;;;;20.62;100.00;101230.00;5259957;28;20025;-79
2023/09/28 00:08:22;;;;;;;;;;;;;;;21.37;100.00;101230.63;5261479;28;20039;-76
2023/09/28 00:10:54;;;;;;;5.63;2.55;;;;;;;20.66;100.00;101238.44;5260657;28;19920;-75
2023/09/28 00:13:26;;;;;;;4.17;2.50;;;;;;;20.60;100.00;101229.34;5261268;28;20470;-76
2023/09/28 00:15:58;;;;;;;8.33;2.57;;;;;;;20.60;100.00;101234.69;5262312;28;20405;-76
2023/09/28 00:18:30;;;;;;;3.88;2.63;;;;;;;20.62;100.00;101239.84;5260719;28;20036;-76
2023/09/28 00:21:02;;;;;;;4.03;2.67;;;;;;;20.59;100.00;101229.56;5260173;28;20389;-78
2023/09/28 00:23:34;;;;;;;6.83;2.90;;;;;;;20.61;100.00;101239.03;5261509;28;20040;-76
2023/09/28 00:26:07;;;;;;;4.50;2.77;;;;;;;20.58;100.00;101243.88;5260433;28;20040;-76
2023/09/28 00:28:38;;;;;;;5.88;2.55;;;;;;;20.60;100.00;101253.31;5257015;23;20100;-72
2023/09/28 00:31:10;;;;;;;6.00;2.70;;;;;;;20.54;100.00;101247.94;5220544;28;20047;-71
2023/09/28 00:33:43;;;;;;;3.97;2.73;;;;;;;20.55;100.00;101250.41;5216848;28;20044;-72
2023/09/28 00:36:15;;;;;;;5.53;2.65;;;;;;;20.54;100.00;101256.75;5219838;28;20495;-71
2023/09/28 00:38:47;;;;;;;3.95;2.45;;;;;;;20.51;100.00;101256.28;5219502;28;20033;-73
2023/09/28 00:41:19;;;;;;;3.13;2.60;;;;;;;20.48;100.00;101265.44;5223837;28;20033;-72
2023/09/28 00:43:51;;;;;;;3.47;2.37;;;;;;;20.48;100.00;101264.59;5221524;28;20088;-73
2023/09/28 00:46:25;;;;;;;3.73;2.70;;;;;;;20.47;100.00;101278.94;5223199;28;20043;-72
2023/09/28 00:49:03;;;;;;;4.95;2.88;;;;;;;20.45;100.00;101276.44;5223438;28;20037;-72
2023/09/28 00:51:35;;;;;;;3.85;2.58;;;;;;;20.39;100.00;101270.03;5222700;28;20040;-72
2023/09/28 00:54:07;;;;;;;4.17;2.50;;;;;;;20.40;100.00;101257.53;5222745;28;20511;-73
2023/09/28 00:56:40;;;;;;;6.50;3.10;;;;;;;20.37;100.00;101265.88;5222085;28;20029;-73
2023/09/28 00:59:11;;;;;;;4.40;2.85;;;;;;;20.32;100.00;101263.78;5223280;28;20036;-73
2023/09/28 01:01:43;;;;;;;7.43;3.37;;;;;;;20.33;100.00;101257.44;5222527;28;20041;-72
2023/09/28 01:04:16;;;;;;;5.10;3.00;;;;;;;20.27;100.00;101244.91;5219056;28;20044;-72
2023/09/28 01:06:48;;;;;;;5.03;2.45;;;;;;;20.25;100.00;101249.56;5221142;28;20030;-72
2023/09/28 01:09:21;;;;;;;5.17;2.43;;;;;;;20.24;100.00;101255.91;5221028;28;20895;-72
2023/09/28 01:11:55;;;;;;;4.97;2.70;;;;;;;20.18;100.00;101268.09;5221986;28;20018;-72
2023/09/28 01:14:27;;;;;;;5.35;2.92;;;;;;;20.15;100.00;101262.31;5221756;28;20044;-72
2023/09/28 01:16:59;;;;;;;5.93;2.80;;;;;;;20.16;100.00;101270.13;5221040;28;20658;-72
2023/09/28 01:19:30;;;;;;;3.40;2.40;;;;;;;20.13;100.00;101262.50;5221606;28;20029;-73
2023/09/28 01:22:09;;;;;;;4.05;2.65;;;;;;;20.18;100.00;101265.44;5222130;28;20033;-72
2023/09/28 01:24:41;;;;;;;6.80;2.90;;;;;;;20.04;100.00;101265.41;5222114;28;20049;-73
2023/09/28 01:27:14;;;;;;;5.75;2.92;;;;;;;20.05;100.00;101269.75;5222627;28;20439;-72
2023/09/28 01:29:46;;;;;;;4.22;2.53;;;;;;;19.99;100.00;101265.97;5222318;28;20060;-72
2023/09/28 01:32:18;;;;;;;8.00;3.07;;;;;;;19.99;100.00;101268.63;5223110;28;20586;-73
2023/09/28 01:34:50;;;;;;;4.27;2.77;;;;;;;19.95;100.00;101259.34;5221933;28;20029;-71
2023/09/28 01:37:31;;;;;;;4.47;2.73;;;;;;;20.07;100.00;101257.91;5221135;28;20021;-72
2023/09/28 01:40:04;;;;;;;7.43;3.03;;;;;;;19.87;100.00;101259.44;5220177;28;20399;-72
2023/09/28 01:42:35;;;;;;;3.55;2.80;;;;;;;19.88;100.00;101264.56;5223411;28;20034;-72
2023/09/28 01:45:08;;;;;;;6.17;3.10;;;;;;;19.85;100.00;101280.91;5221459;28;20029;-72
2023/09/28 01:47:40;;;;;;;6.47;3.00;;;;;;;19.82;100.00;101277.78;5220066;28;20045;-72
2023/09/28 01:50:12;;;;;;;3.63;2.50;;;;;;;19.80;100.00;101274.47;5219534;28;20038;-73
2023/09/28 01:52:44;;;;;;;5.00;2.93;;;;;;;19.83;100.00;101277.59;5219773;28;20037;-72
2023/09/28 01:55:16;;;;;;;6.67;2.63;;;;;;;19.76;100.00;101279.31;5221018;28;20021;-72
2023/09/28 01:57:48;;;;;;;4.83;2.73;;;;;;;19.74;100.00;101277.84;5219244;28;20498;-72
2023/09/28 02:00:22;;;;;;;4.97;2.92;;;;;;;19.72;100.00;101287.81;5220923;28;20403;-73
2023/09/28 02:02:56;;;;;;;5.07;2.85;;;;;;;19.69;100.00;101287.16;5223307;28;20029;-73
2023/09/28 02:05:32;;;;;;;4.80;3.03;;;;;;;19.61;100.00;101284.56;5220667;28;20029;-72
2023/09/28 02:08:07;;;;;;;3.17;2.72;;;;;;;19.63;100.00;101300.38;5220896;28;20032;-72
2023/09/28 02:10:40;;;;;;;4.80;2.85;;;;;;;19.61;100.00;101299.69;5222417;28;20029;-72
2023/09/28 02:13:12;;;;;;;;;;;;;;;20.39;100.00;101303.81;5221574;28;20021;-73
2023/09/28 02:15:43;;;;;;;4.18;2.50;;;;;;;19.62;100.00;101306.66;5220250;28;19923;-72
2023/09/28 02:18:15;;;;;;;7.55;3.80;;;;;;;19.59;100.00;101307.03;5218560;28;20716;-72
2023/09/28 02:20:48;;;;;;;5.53;2.87;;;;;;;19.55;100.00;101306.53;5219883;28;20036;-72
2023/09/28 02:23:22;;;;;;;5.93;2.80;;;;;;;19.48;100.00;101288.84;5223310;28;20064;-72
2023/09/28 02:25:53;;;;;;;5.40;3.33;;;;;;;19.43;100.00;101298.16;5219953;28;20025;-72
2023/09/28 02:28:25;;;;;;;3.95;2.85;;;;;;;19.42;100.00;101314.25;5221206;28;20388;-72
2023/09/28 02:31:06;;;;;;;5.20;2.92;;;;;;;19.51;100.00;101299.94;5218269;28;20040;-71
2023/09/28 02:33:38;;;;;;;4.43;3.08;;;;;;;19.34;100.00;101309.00;5219708;28;20040;-73
2023/09/28 02:36:10;;;;;;;4.45;3.03;;;;;;;19.33;100.00;101307.38;5220095;28;20042;-72
2023/09/28 02:38:43;;;;;;;6.63;2.83;;;;;;;19.29;100.00;101311.38;5219635;28;20059;-73
2023/09/28 02:41:19;;;;;;;5.20;3.00;;;;;;;19.23;100.00;101314.72;5219601;28;20033;-73
2023/09/28 02:43:51;;;;;;;4.90;2.95;;;;;;;19.20;100.00;101313.22;5221063;28;20045;-73
2023/09/28 02:46:25;;;;;;;5.13;2.83;;;;;;;19.20;100.00;101307.94;5222068;28;20038;-72
2023/09/28 02:48:57;;;;;;;4.22;3.33;;;;;;;19.16;100.00;101311.94;5220029;28;20021;-73
2023/09/28 02:51:29;;;;;;;3.78;2.85;;;;;;;19.17;100.00;101317.09;5220627;28;20040;-73
2023/09/28 02:54:00;;;;;;;4.20;3.03;;;;;;;19.16;100.00;101319.91;5218264;28;20033;-72
2023/09/28 02:56:32;;;;;;;4.90;3.10;;;;;;;19.07;100.00;101311.16;5219787;28;20036;-73
2023/09/28 02:59:06;;;;;;;5.00;3.05;;;;;;;19.09;100.00;101318.94;5217919;28;20513;-73
2023/09/28 03:01:38;;;;;;;5.68;3.28;;;;;;;18.99;100.00;101324.50;5220895;28;20029;-71
2023/09/28 03:04:11;;;;;;;5.80;3.47;;;;;;;19.00;100.00;101323.47;5219331;28;20034;-71
2023/09/28 03:06:44;;;;;;;4.03;3.10;;;;;;;18.98;100.00;101322.00;5220213;28;20465;-72
2023/09/28 03:09:16;;;;;;;5.38;3.53;;;;;;;18.90;100.00;101328.16;5221177;28;20026;-72
2023/09/28 03:11:48;;;;;;;4.40;3.28;;;;;;;18.93;100.00;101333.13;5222382;28;20047;-72
2023/09/28 03:14:21;;;;;;;5.68;3.63;;;;;;;18.89;100.00;101334.47;5223647;28;20037;-72
2023/09/28 03:16:53;;;;;;;5.20;3.50;;;;;;;18.89;100.00;101337.97;5220055;28;20033;-72
2023/09/28 03:19:25;;;;;;;5.97;3.67;;;;;;;18.85;100.00;101336.66;5220649;28;20036;-72
2023/09/28 03:21:57;;;;;;;4.77;3.33;;;;;;;18.84;100.00;101342.16;5222894;28;20034;-72
2023/09/28 03:24:29;;;;;;;6.47;3.38;;;;;;;18.81;100.00;101345.13;5221781;28;20048;-72
2023/09/28 03:27:00;;;;;;;7.07;3.40;;;;;;;18.80;100.00;101351.44;5222334;28;20043;-72
2023/09/28 03:29:32;;;;;;;4.72;3.28;;;;;;;18.75;100.00;101353.78;5217753;28;20053;-72
2023/09/28 03:32:04;;;;;;;6.30;3.67;;;;;;;18.75;100.00;101353.78;5219784;28;20634;-72
2023/09/28 03:34:36;;;;;;;4.83;3.50;;;;;;;18.74;100.00;101349.47;5222397;28;20029;-72
2023/09/28 03:37:09;;;;;;;4.85;3.80;;;;;;;18.69;100.00;101356.09;5221464;28;20029;-72
2023/09/28 03:39:41;;;;;;;;;;;;;;;19.47;100.00;101356.25;5219203;28;20041;-72
2023/09/28 03:42:13;;;;;;;5.78;3.20;;;;;;;18.66;100.00;101363.56;5219737;28;19917;-72
2023/09/28 03:44:45;;;;;;;5.87;3.80;;;;;;;18.64;100.00;101370.88;5221238;28;20030;-72
2023/09/28 03:47:17;;;;;;;6.10;3.33;;;;;;;18.61;100.00;101381.84;5220125;28;20022;-72
2023/09/28 03:49:49;;;;;;;4.40;3.10;;;;;;;18.60;100.00;101375.72;5221426;28;20616;-72
2023/09/28 03:52:21;;;;;;;5.07;3.45;;;;;;;18.58;100.00;101388.31;5219264;28;20402;-72
2023/09/28 03:54:53;;;;;;;5.30;3.92;;;;;;;18.58;100.00;101382.16;5220906;28;20030;-72
2023/09/28 03:57:25;;;;;;;5.20;3.90;;;;;;;18.53;100.00;101369.41;5219388;28;20038;-72
2023/09/28 03:59:57;;;;;;;4.17;3.47;;;;;;;18.51;100.00;101368.75;5218708;28;22444;-72
2023/09/28 04:02:29;;;;;;;6.77;3.47;;;;;;;18.50;100.00;101380.38;5222244;28;20033;-72
2023/09/28 04:05:00;;;;;;;6.70;3.50;;;;;;;18.48;100.00;101382.34;5219430;28;20034;-72
2023/09/28 04:07:32;;;;;;;5.70;3.65;;;;;;;18.45;100.00;101382.72;5218324;28;20025;-72
2023/09/28 04:10:05;;;;;;;5.22;3.63;;;;;;;18.48;100.00;101385.00;5217344;28;20029;-72
2023/09/28 04:12:37;;;;;;;7.57;3.67;;;;;;;18.38;100.00;101397.63;5221480;28;20030;-72
2023/09/28 04:15:09;;;;;;;5.60;3.10;;;;;;;18.41;100.00;101395.47;5221114;28;20029;-72
2023/09/28 04:17:41;;;;;;;6.18;4.03;;;;;;;18.34;100.00;101394.47;5219292;28;20057;-72
2023/09/28 04:20:13;;;;;;;7.25;3.53;;;;;;;18.36;100.00;101389.81;5220676;28;20033;-72
2023/09/28 04:22:45;;;;;;;5.22;4.05;;;;;;;18.29;100.00;101383.53;5220382;28;20037;-72
2023/09/28 04:25:19;;;;;;;5.77;3.70;;;;;;;18.24;100.00;101383.22;5222434;28;20583;-72
2023/09/28 04:27:51;;;;;;;6.03;4.18;;;;;;;18.17;100.00;101384.88;5220433;28;20499;-72
2023/09/28 04:30:23;;;;;;;5.03;3.80;;;;;;;18.22;100.00;101387.84;5218584;28;20083;-72
2023/09/28 04:32:55;;;;;;;7.00;4.17;;;;;;;18.20;100.00;101389.84;5219324;28;20061;-72
2023/09/28 04:35:27;;;;;;;4.57;3.50;;;;;;;18.17;100.00;101396.31;5218621;28;20034;-72
2023/09/28 04:37:59;;;;;;;5.93;3.75;;;;;;;18.11;100.00;101397.00;5219892;28;20300;-72
2023/09/28 04:40:31;;;;;;;6.30;3.75;;;;;;;18.10;100.00;101392.66;5221555;28;20047;-72
2023/09/28 04:43:03;;;;;;;6.13;3.83;;;;;;;18.07;100.00;101405.41;5219229;28;20040;-72
2023/09/28 04:45:35;;;;;;;6.80;4.13;;;;;;;18.04;100.00;101405.78;5220456;28;20045;-72
2023/09/28 04:48:07;;;;;;;5.30;3.63;;;;;;;18.01;100.00;101414.88;5219233;28;20038;-72
2023/09/28 04:50:39;;;;;;;4.97;3.83;;;;;;;17.97;100.00;101419.69;5220157;28;20038;-72
2023/09/28 04:53:11;;;;;;;4.53;4.00;;;;;;;17.99;100.00;101412.41;5219772;28;20593;-72
2023/09/28 04:55:43;;;;;;;5.80;4.13;;;;;;;17.97;100.00;101400.28;5221140;28;20060;-72
2023/09/28 04:58:15;;;;;;;7.72;4.85;;;;;;;17.96;100.00;101410.06;5219023;28;20045;-72
2023/09/28 05:00:47;;;;;;;10.18;4.28;;;;;;;17.91;100.00;101424.78;5221017;28;20037;-72
2023/09/28 05:03:19;;;;;;;7.55;4.28;;;;;;;17.90;100.00;101433.75;5220121;28;20033;-72
2023/09/28 05:05:51;;;;;;;4.97;3.35;;;;;;;17.86;100.00;101443.84;5218965;28;20064;-72
2023/09/28 05:08:23;;;;;;;6.18;3.50;;;;;;;17.86;100.00;101448.31;5218864;28;20022;-72
2023/09/28 05:10:55;;;;;;;6.38;3.60;;;;;;;17.85;100.00;101447.50;5220022;28;20045;-72
2023/09/28 05:13:29;;;;;;;6.23;3.73;;;;;;;17.85;100.00;101444.84;5215458;28;20045;-72
2023/09/28 05:16:01;;;;;;;5.38;3.63;;;;;;;17.73;100.00;101443.47;5218824;28;20674;-72
2023/09/28 05:18:35;;;;;;;6.55;3.35;;;;;;;17.67;100.00;101439.63;5221048;28;20104;-72
2023/09/28 05:21:07;;;;;;;8.38;4.20;;;;;;;17.75;100.00;101452.09;5217061;28;20394;-72
2023/09/28 05:23:38;;;;;;;6.57;3.80;;;;;;;17.79;100.00;101460.56;5219973;28;20028;-71
2023/09/28 05:26:10;;;;;;;7.45;4.30;;;;;;;17.77;100.00;101467.84;5225109;28;20041;-72
2023/09/28 05:28:42;;;;;;;6.78;3.75;;;;;;;17.74;100.00;101472.44;5224029;28;20100;-71
2023/09/28 05:31:14;;;;;;;7.03;3.55;;;;;;;17.70;100.00;101481.72;5223819;28;20037;-72
2023/09/28 05:33:46;;;;;;;7.28;3.85;;;;;;;17.66;100.00;101477.72;5221226;28;20033;-72
2023/09/28 05:36:20;;;;;;;6.10;3.08;;;;;;;17.56;100.00;101471.72;5221216;28;20038;-72
2023/09/28 05:38:52;;;;;;;7.03;3.58;;;;;;;17.50;100.00;101475.00;5222366;28;20395;-72
2023/09/28 05:41:24;;;;;;;9.52;3.70;;;;;;;17.50;100.00;101486.47;5223436;28;20711;-72
2023/09/28 05:43:56;;;;;;;9.98;4.47;;;;;;;17.51;100.00;101484.63;5222502;28;20025;-73
2023/09/28 05:46:28;;;;;;;8.88;3.75;;;;;;;17.40;100.00;101491.03;5217875;28;20040;-72
2023/09/28 05:49:00;;;;;;;9.65;4.13;;;;;;;17.43;100.00;101492.56;5217775;28;20036;-72
2023/09/28 05:51:31;;;;;;;5.47;3.60;;;;;;;17.36;100.00;101492.34;5216486;28;20029;-72
2023/09/28 05:54:03;;;;;;;7.03;3.70;;;;;;;17.41;100.00;101500.66;5213723;28;20033;-72
2023/09/28 05:56:35;;;;;;;8.65;3.75;;;;;;;17.36;100.00;101496.81;5223216;28;20437;-72
2023/09/28 05:59:07;;;;;;;6.45;3.53;;;;;;;17.31;100.00;101510.50;5216791;28;20040;-71
2023/09/28 06:01:39;;;;;;;6.05;3.92;;;;;;;17.38;100.00;101516.03;5220901;28;20039;-71
2023/09/28 06:04:12;;;;;;;6.63;3.20;;;;;;;17.37;100.00;101514.38;5222766;28;20483;-71
2023/09/28 06:06:43;;;;;;;8.13;3.75;;;;;;;17.33;100.00;101513.03;5220905;28;20025;-71
2023/09/28 06:09:19;;;;;;;6.88;3.80;;;;;;;17.37;100.00;101517.84;5221552;28;20034;-71
2023/09/28 06:11:52;;;;;;;7.55;3.72;;;;;;;17.35;100.00;101511.03;5221294;28;20506;-71
2023/09/28 06:14:24;;;;;;;6.78;3.92;;;;;;;17.33;100.00;101507.72;5218254;28;20053;-71
2023/09/28 06:16:56;;;;;;;9.07;3.88;;;;;;;17.31;100.00;101513.16;5220076;28;20041;-73
2023/09/28 06:19:28;;;;;;;10.07;4.28;;;;;;;17.32;100.00;101516.66;5221270;28;20661;-72
2023/09/28 06:22:00;;;;;;;8.17;3.93;;;;;;;17.36;100.00;101513.53;5221107;28;20482;-71
2023/09/28 06:24:32;;;;;;;8.93;3.58;;;;;;;17.38;100.00;101516.84;5221005;28;20029;-70
2023/09/28 06:27:05;;;;;;;7.40;3.88;;;;;;;17.38;100.00;101523.97;5221248;28;20033;-71
2023/09/28 06:29:37;;;;;;;10.40;4.10;;;;;;;17.38;100.00;101527.44;5221693;28;20041;-71
2023/09/28 06:32:09;;;;;;;9.65;3.50;;;;;;;17.40;100.00;101537.91;5224243;28;20518;-71
2023/09/28 06:34:41;;;;;;;10.98;4.00;;;;;;;17.42;100.00;101543.84;5215657;28;20039;-71
2023/09/28 06:37:12;;;;;;;10.27;4.00;;;;;;;17.43;100.00;101559.59;5222282;28;20039;-71
2023/09/28 06:39:44;;;;;;;10.75;3.65;;;;;;;17.41;100.00;101545.69;5219167;28;20474;-72
2023/09/28 06:42:16;;;;;;;7.85;3.28;;;;;;;17.45;100.00;101546.19;5218948;28;20048;-72
2023/09/28 06:44:48;;;;;;;8.85;4.10;;;;;;;17.42;100.00;101539.38;5217189;28;20044;-71
2023/09/28 06:47:20;;;;;;;10.73;4.45;;;;;;;17.49;100.00;101543.06;5221671;28;20034;-71
2023/09/28 06:49:52;;;;;;;7.18;3.17;;;;;;;17.53;100.00;101548.88;5218886;28;20033;-72
2023/09/28 06:52:24;;;;;;;10.75;4.10;;;;;;;17.55;100.00;101554.03;5218842;28;20487;-72
2023/09/28 06:54:57;;;;;;;14.18;4.20;;;;;;;17.56;100.00;101553.03;5218470;28;20044;-72
2023/09/28 06:57:29;;;;;;;12.27;4.35;;;;;;;17.64;100.00;101571.63;5220543;28;20037;-72
2023/09/28 07:00:06;;;;;;;15.35;3.97;;;;;;;17.69;100.00;101575.47;5220466;28;20056;-72
2023/09/28 07:02:38;;;;;;;10.13;3.88;;;;;;;17.68;100.00;101568.47;5217525;28;20488;-72
2023/09/28 07:05:10;;;;;;;13.10;3.97;;;;;;;17.82;100.00;101577.69;5219691;28;20419;-72
2023/09/28 07:07:42;;;;;;;12.32;4.43;;;;;;;17.91;100.00;101592.63;5220397;28;20042;-72
2023/09/28 07:10:15;;;;;;;11.10;3.97;;;;;;;17.96;100.00;101587.69;5219466;28;20498;-72
2023/09/28 07:12:46;;;;;;;13.73;3.57;;;;;;;18.08;100.00;101577.63;5219372;28;20030;-72
2023/09/28 07:15:18;;;;;;;12.57;3.70;;;;;;;18.02;100.00;101562.34;5220324;28;20306;-72
2023/09/28 07:17:50;;;;;;;15.80;3.85;;;;;;;18.16;100.00;101572.34;5220199;28;20116;-72
2023/09/28 07:20:23;;;;;;;10.52;4.00;;;;;;;18.20;100.00;101581.63;5219730;28;20131;-72
2023/09/28 07:22:56;;;;;;;19.35;4.60;;;;;;;18.23;100.00;101569.88;5217680;28;20110;-72
2023/09/28 07:25:29;;;;;;;18.75;4.63;;;;;;;18.25;100.00;101565.22;5216055;28;20037;-72
2023/09/28 07:28:01;;;;;;;12.30;3.90;;;;;;;18.29;100.00;101568.38;5220792;28;20404;-72
2023/09/28 07:30:35;;;;;;;14.77;4.50;;;;;;;18.34;100.00;101571.41;5218487;28;20036;-72
2023/09/28 07:33:07;;;;;;;11.32;4.03;;;;;;;18.33;100.00;101582.97;5221907;28;20034;-72
2023/09/28 07:35:39;;;;;;;11.38;3.90;;;;;;;18.34;100.00;101597.91;5216946;28;20506;-72
2023/09/28 07:38:12;;;;;;;11.87;4.07;;;;;;;18.32;100.00;101598.06;5220029;28;20030;-72
2023/09/28 07:40:44;;;;;;;14.65;4.13;;;;;;;18.40;100.00;101603.38;5218397;28;20296;-72
2023/09/28 07:43:15;;;;;;;18.08;4.18;;;;;;;18.50;100.00;101608.56;5219052;28;20025;-72
2023/09/28 07:45:49;;;;;;;16.55;4.03;;;;;;;18.63;100.00;101608.91;5220386;28;20037;-72
2023/09/28 07:48:21;;;;;;;16.63;4.68;;;;;;;18.58;100.00;101597.13;5219940;28;20445;-72
2023/09/28 07:50:53;;;;;;;18.10;4.47;;;;;;;18.67;100.00;101602.25;5220797;28;20032;-72
2023/09/28 07:53:25;;;;;;;15.50;4.43;;;;;;;18.76;100.00;101605.81;5217032;28;20036;-72
2023/09/28 07:55:57;;;;;;;16.13;4.10;;;;;;;18.82;100.00;101609.59;5217879;28;20029;-72
2023/09/28 07:58:29;;;;;;;16.48;4.90;;;;;;;18.91;100.00;101611.28;5218119;28;20628;-72
2023/09/28 08:01:01;;;;;;;16.48;4.22;;;;;;;19.01;100.00;101619.06;5216274;28;20045;-72
2023/09/28 08:03:34;;;;;;;13.53;4.17;;;;;;;19.16;100.00;101615.56;5217231;28;20037;-72
2023/09/28 08:06:06;;;;;;;18.98;4.60;;;;;;;19.20;100.00;101627.50;5216577;28;20057;-72
2023/09/28 08:08:38;;;;;;;17.55;3.72;;;;;;;19.31;100.00;101628.19;5217845;28;20108;-72
2023/09/28 08:11:10;;;;;;;15.15;3.92;;;;;;;19.39;100.00;101628.97;5218914;28;20025;-72
2023/09/28 08:13:43;;;;;;;12.70;4.38;;;;;;;19.45;100.00;101636.28;5215303;28;20045;-72
2023/09/28 08:16:15;;;;;;;;;;;;;;;20.16;100.00;101631.94;5215983;28;20034;-72
2023/09/28 08:18:48;;;;;;;20.27;4.65;;;;;;;19.50;100.00;101633.13;5219374;28;20384;-72
2023/09/28 08:21:19;;;;;;;16.30;3.72;;;;;;;19.59;100.00;101633.94;5219651;28;20026;-72
2023/09/28 08:23:51;;;;;;;18.83;4.78;;;;;;;19.58;100.00;101630.44;5221055;28;20044;-72
2023/09/28 08:26:23;;;;;;;17.85;4.07;;;;;;;19.73;100.00;101637.75;5222102;28;20037;-72
2023/09/28 08:28:55;;;;;;;12.57;3.75;;;;;;;19.79;100.00;101639.72;5219050;28;20419;-72
2023/09/28 08:31:27;;;;;;;24.17;5.50;;;;;;;19.89;100.00;101643.84;5219730;28;20064;-72
2023/09/28 08:33:59;;;;;;;15.40;4.23;;;;;;;19.85;100.00;101642.53;5217968;28;20064;-72
2023/09/28 08:36:31;;;;;;;16.60;3.83;;;;;;;19.97;100.00;101650.97;5216178;28;20241;-72
2023/09/28 08:39:04;;;;;;;15.15;4.75;;;;;;;19.98;100.00;101649.97;5219517;28;20025;-72
2023/09/28 08:41:47;;;;;;;19.42;5.15;;;;;;;20.05;100.00;101661.59;5219176;28;20261;-72
2023/09/28 08:44:24;;;;;;;15.82;4.45;;;;;;;20.05;100.00;101668.75;5214556;28;20758;-72
2023/09/28 08:47:00;;;;;;;16.13;4.60;;;;;;;19.95;100.00;101668.09;5218595;28;20491;-72
2023/09/28 08:49:35;;;;;;;15.52;4.53;;;;;;;19.91;100.00;101656.97;5218286;28;20408;-72
2023/09/28 08:52:07;;;;;;;15.68;3.90;;;;;;;19.98;100.00;101679.22;5218472;28;20076;-72
2023/09/28 08:54:39;;;;;;;14.07;4.28;;;;;;;20.05;100.00;101676.72;5214550;28;20442;-72
2023/09/28 08:57:11;;;;;;;18.00;4.50;;;;;;;20.17;100.00;101681.47;5220042;28;20057;-72
2023/09/28 08:59:44;;;;;;;15.15;5.10;;;;;;;20.19;100.00;101675.97;5220970;28;20115;-72
2023/09/28 09:02:16;;;;;;;14.67;4.70;;;;;;;20.15;100.00;101664.00;5216681;28;20034;-72
2023/09/28 09:04:48;;;;;;;16.08;4.63;;;;;;;20.15;100.00;101670.19;5213006;28;20296;-72
2023/09/28 09:07:21;;;;;;;13.80;4.70;;;;;;;20.31;100.00;101671.13;5221247;28;20076;-72
2023/09/28 09:09:56;;;;;;;17.58;4.63;;;;;;;20.37;100.00;101673.06;5221751;28;20045;-72
2023/09/28 09:12:32;;;;;;;17.00;4.68;;;;;;;20.52;100.00;101675.84;5221717;28;20052;-72
2023/09/28 09:15:05;;;;;;;15.48;4.53;;;;;;;20.59;100.00;101680.28;5220026;28;20471;-72
2023/09/28 09:17:37;;;;;;;18.67;4.63;;;;;;;20.82;100.00;101682.16;5221555;28;20399;-72
2023/09/28 09:20:09;;;;;;;15.60;5.25;;;;;;;20.93;100.00;101689.72;5220507;28;20053;-72
2023/09/28 09:22:41;;;;;;;15.00;4.82;;;;;;;20.90;100.00;101685.56;5220290;28;20038;-72
2023/09/28 09:25:15;;;;;;;15.00;4.40;;;;;;;20.93;100.00;101688.91;5220836;28;20030;-72
2023/09/28 09:27:48;;;;;;;14.45;4.55;;;;;;;20.98;100.00;101676.69;5216361;28;20037;-72
2023/09/28 09:30:20;;;;;;;18.20;5.00;;;;;;;20.99;100.00;101689.03;5222758;28;20030;-72
2023/09/28 09:32:53;;;;;;;15.30;4.17;;;;;;;21.14;100.00;101686.41;5218122;28;20034;-72
2023/09/28 09:35:27;;;;;;;;;;;;;;;21.94;100.00;101683.16;5218420;28;20296;-72
2023/09/28 09:37:59;;;;;;;17.75;4.63;;;;;;;21.33;100.00;101679.78;5222402;28;19921;-72
2023/09/28 09:40:32;;;;;;;15.65;4.78;;;;;;;21.46;100.00;101673.84;5220972;28;20494;-72
2023/09/28 09:43:07;;;;;;;15.10;4.07;;;;;;;21.56;100.00;101669.91;5222548;28;20048;-72
2023/09/28 09:45:39;;;;;;;13.05;4.00;;;;;;;21.36;95.18;101677.56;5219306;28;20368;-72
2023/09/28 09:48:11;;;;;;;17.50;4.17;;;;;;;21.35;97.41;101683.91;5220660;28;20168;-72
2023/09/28 09:50:43;;;;;;;15.53;4.30;;;;;;;21.13;98.76;101685.56;5219481;28;20342;-72
2023/09/28 09:53:16;;;;;;;15.57;4.13;;;;;;;21.22;99.85;101694.34;5222476;28;20030;-72
2023/09/28 09:55:50;;;;;;;18.45;5.50;;;;;;;21.33;97.70;101701.13;5223939;28;20030;-72
2023/09/28 09:58:29;;;;;;;17.60;4.20;;;;;;;21.41;99.23;101690.38;5223900;28;20037;-72
2023/09/28 10:01:01;;;;;;;14.32;4.18;;;;;;;21.35;99.78;101689.25;5221505;28;20029;-72
2023/09/28 10:03:35;;;;;;;14.40;3.70;;;;;;;21.53;97.05;101688.91;5222686;28;20040;-72
2023/09/28 10:06:07;;;;;;;16.95;4.43;;;;;;;21.62;95.20;101689.66;5218656;28;20030;-72
2023/09/28 10:08:40;;;;;;;16.15;3.85;;;;;;;21.85;98.45;101684.25;5220278;28;20026;-72
2023/09/28 10:11:13;;;;;;;14.52;3.63;;;;;;;22.08;97.51;101679.63;5219914;28;20042;-72
2023/09/28 10:13:48;;;;;;;15.70;4.25;;;;;;;22.09;90.41;101670.63;5218088;28;20025;-72
2023/09/28 10:16:21;;;;;;;15.63;4.03;;;;;;;22.23;91.19;101663.63;5219033;28;20447;-72
2023/09/28 10:18:53;;;;;;;16.10;4.18;;;;;;;22.39;90.96;101664.41;5220137;28;20580;-72
2023/09/28 10:21:25;;;;;;;13.38;4.47;;;;;;;22.31;87.50;101655.53;5217953;28;20037;-72
2023/09/28 10:23:57;;;;;;;11.50;3.70;;;;;;;22.31;85.66;101646.69;5219075;28;20407;-72
2023/09/28 10:26:31;;;;;;;13.43;3.67;;;;;;;22.33;87.02;101650.81;5220036;28;20038;-72
2023/09/28 10:29:04;;;;;;;12.73;3.78;;;;;;;22.34;85.19;101649.78;5219456;28;20052;-72
2023/09/28 10:31:37;;;;;;;14.15;4.05;;;;;;;22.42;84.70;101651.53;5218715;28;20056;-72
2023/09/28 10:34:19;;;;;;;13.32;4.13;;;;;;;22.63;86.95;101650.72;5219922;28;20056;-72
2023/09/28 10:37:07;;;;;;;10.00;3.22;;;;;;;22.85;82.99;101672.13;5220572;28;20050;-72
2023/09/28 10:39:42;;;;;;;14.48;3.53;;;;;;;22.59;81.32;101666.31;5220870;28;20040;-72
2023/09/28 10:42:17;;;;;;;12.95;3.35;;;;;;;22.49;79.94;101654.28;5221133;28;20026;-72
2023/09/28 10:44:55;;;;;;;12.80;3.30;;;;;;;22.44;81.40;101662.03;5219915;28;20033;-72
2023/09/28 10:47:31;;;;;;;11.20;3.10;;;;;;;22.53;82.44;101669.72;5219716;28;20030;-72
2023/09/28 10:50:04;;;;;;;13.48;3.60;;;;;;;22.59;83.17;101670.81;5220017;28;20033;-72
2023/09/28 10:52:36;;;;;;;11.32;3.00;;;;;;;22.79;82.45;101677.19;5220438;28;20026;-72
2023/09/28 10:55:08;;;;;;;15.97;3.90;;;;;;;22.80;78.97;101672.66;5219521;28;20400;-72
2023/09/28 10:57:40;;;;;;;13.63;3.90;;;;;;;22.82;79.52;101670.66;5219604;28;20033;-72
2023/09/28 11:00:12;;;;;;;16.20;4.33;;;;;;;22.80;78.13;101673.50;5221862;28;20032;-72
2023/09/28 11:02:46;;;;;;;14.75;4.25;;;;;;;22.89;80.24;101682.22;5219338;28;20025;-72
2023/09/28 11:05:19;;;;;;;11.40;3.83;;;;;;;22.71;79.09;101684.50;5217325;28;20041;-72
2023/09/28 11:07:51;;;;;;;9.50;3.75;;;;;;;22.71;80.75;101677.31;5219343;28;20037;-72
2023/09/28 11:10:23;;;;;;;11.85;3.58;;;;;;;22.78;82.45;101691.56;5220405;28;20045;-72
2023/09/28 11:12:55;;;;;;;14.63;4.10;;;;;;;22.73;81.26;101694.00;5217133;28;20032;-72
2023/09/28 11:15:29;;;;;;;13.57;3.67;;;;;;;22.79;80.11;101692.41;5219438;28;20045;-72
2023/09/28 11:18:01;;;;;;;14.85;3.70;;;;;;;22.77;81.68;101681.91;5219735;28;20029;-72
2023/09/28 11:20:33;;;;;;;15.33;3.70;;;;;;;22.91;82.28;101680.22;5219426;28;20029;-73
2023/09/28 11:23:10;;;;;;;14.05;3.63;;;;;;;22.98;82.44;101686.44;5218467;28;20080;-72
2023/09/28 11:25:42;;;;;;;14.57;4.50;;;;;;;22.80;82.35;101688.69;5218991;28;20446;-72
2023/09/28 11:28:14;;;;;;;9.65;3.33;;;;;;;22.76;81.01;101684.75;5219570;28;20045;-72
2023/09/28 11:31:02;;;;;;;15.55;3.85;;;;;;;22.94;79.32;101690.53;5217051;28;20041;-72
2023/09/28 11:33:36;;;;;;;12.23;3.22;;;;;;;22.56;80.79;101684.56;5217688;28;20037;-72
2023/09/28 11:36:12;;;;;;;12.25;3.70;;;;;;;22.58;79.02;101687.88;5219423;28;20053;-72
2023/09/28 11:38:46;;;;;;;14.60;3.72;;;;;;;22.54;81.09;101676.75;5218925;28;20041;-72
2023/09/28 11:41:18;;;;;;;10.25;3.38;;;;;;;22.65;78.20;101683.41;5221428;28;20037;-72